createdAt,value
2023-02-01T00:02:09.914Z,4.70
2023-02-01T00:04:36.837Z,5.10
2023-02-01T00:07:03.444Z,5.20
2023-02-01T00:09:30.119Z,5.30
2023-02-01T00:12:00.344Z,5.50
2023-02-01T00:14:27.035Z,5.70
2023-02-01T00:16:53.653Z,5.50
2023-02-01T00:19:20.378Z,5.60
2023-02-01T00:21:47.178Z,5.30
2023-02-01T00:24:14.039Z,5.10
2023-02-01T00:26:41.855Z,5.10
2023-02-01T00:29:11.789Z,4.90
2023-02-01T00:31:38.519Z,4.60
2023-02-01T00:34:05.508Z,4.60
2023-02-01T00:36:32.567Z,4.50
2023-02-01T00:38:59.247Z,4.30
2023-02-01T00:41:27.032Z,4.40
2023-02-01T00:43:53.732Z,4.20
2023-02-01T00:46:21.041Z,4.20
2023-02-01T00:48:48.199Z,4.20
2023-02-01T00:51:17.252Z,4.20
2023-02-01T00:53:44.258Z,4.20
2023-02-01T00:56:11.170Z,4.30
2023-02-01T00:58:38.302Z,4.20
2023-02-01T01:01:06.636Z,4.00
2023-02-01T01:03:34.546Z,3.80
2023-02-01T01:06:02.035Z,4.10
2023-02-01T01:08:28.730Z,3.90
2023-02-01T01:10:55.350Z,3.90
2023-02-01T01:13:22.015Z,3.80
2023-02-01T01:15:48.718Z,3.80
2023-02-01T01:18:15.372Z,3.70
2023-02-01T01:20:42.853Z,3.70
2023-02-01T01:23:09.906Z,3.60
2023-02-01T01:25:39.974Z,3.70
2023-02-01T01:28:07.082Z,3.80
2023-02-01T01:30:37.013Z,3.70
2023-02-01T01:33:04.814Z,3.70
2023-02-01T01:35:32.305Z,3.50
2023-02-01T01:37:59.438Z,3.50
2023-02-01T01:40:26.361Z,3.50
2023-02-01T01:42:55.252Z,3.40
2023-02-01T01:45:21.910Z,3.40
2023-02-01T01:47:50.069Z,3.40
2023-02-01T01:50:20.846Z,3.30
2023-02-01T01:52:49.530Z,3.30
2023-02-01T01:55:17.790Z,3.30
2023-02-01T01:57:46.813Z,3.30
2023-02-01T02:00:15.171Z,3.40
2023-02-01T02:02:43.976Z,3.40
2023-02-01T02:05:11.482Z,3.40
2023-02-01T02:07:40.629Z,3.40
2023-02-01T02:10:11.595Z,3.40
2023-02-01T02:12:39.180Z,3.50
2023-02-01T02:15:07.603Z,3.50
2023-02-01T02:17:41.945Z,3.60
2023-02-01T02:20:11.475Z,3.60
2023-02-01T02:22:47.301Z,3.70
2023-02-01T02:25:13.900Z,3.70
2023-02-01T02:27:43.646Z,3.60
2023-02-01T02:30:30.605Z,3.50
2023-02-01T02:32:57.259Z,3.60
2023-02-01T02:35:30.060Z,3.60
2023-02-01T02:38:09.011Z,3.60
2023-02-01T02:40:41.853Z,3.80
2023-02-01T02:43:30.161Z,3.70
2023-02-01T02:46:34.599Z,3.80
2023-02-01T02:49:10.488Z,3.80
2023-02-01T02:52:00.958Z,3.70
2023-02-01T02:54:49.663Z,3.70
2023-02-01T02:57:51.869Z,3.70
2023-02-01T03:00:38.502Z,3.70
2023-02-01T03:03:24.193Z,3.80
2023-02-01T03:05:54.052Z,3.80
2023-02-01T03:08:25.053Z,3.80
2023-02-01T03:10:56.844Z,3.60
2023-02-01T03:13:23.523Z,3.60
2023-02-01T03:15:50.131Z,3.70
2023-02-01T03:18:23.220Z,3.60
2023-02-01T03:20:51.607Z,3.70
2023-02-01T03:23:20.533Z,3.80
2023-02-01T03:25:48.444Z,3.80
2023-02-01T03:28:16.322Z,3.70
2023-02-01T03:30:44.080Z,3.80
2023-02-01T03:33:23.557Z,3.60
2023-02-01T03:36:10.732Z,3.70
2023-02-01T03:38:56.104Z,3.70
2023-02-01T03:41:28.852Z,3.60
2023-02-01T03:44:09.942Z,3.60
2023-02-01T03:46:40.310Z,3.50
2023-02-01T03:49:09.063Z,3.50
2023-02-01T03:51:36.811Z,3.50
2023-02-01T03:54:04.411Z,3.50
2023-02-01T03:56:32.401Z,3.50
2023-02-01T03:59:02.001Z,3.50
2023-02-01T04:01:29.553Z,3.50
2023-02-01T04:03:56.629Z,3.50
2023-02-01T04:06:23.270Z,3.50
2023-02-01T04:08:50.084Z,3.50
2023-02-01T04:11:16.894Z,3.50
2023-02-01T04:13:43.646Z,3.50
2023-02-01T04:16:10.332Z,3.40
2023-02-01T04:18:36.933Z,3.40
2023-02-01T04:21:03.919Z,3.40
2023-02-01T04:23:30.638Z,3.40
2023-02-01T04:26:01.597Z,3.40
2023-02-01T04:28:28.540Z,3.40
2023-02-01T04:30:55.430Z,3.40
2023-02-01T04:33:22.099Z,3.40
2023-02-01T04:35:48.984Z,3.40
2023-02-01T04:38:15.649Z,3.40
2023-02-01T04:40:42.259Z,3.60
2023-02-01T04:43:09.100Z,3.60
2023-02-01T04:45:35.766Z,3.60
2023-02-01T04:48:02.402Z,3.60
2023-02-01T04:50:29.148Z,3.60
2023-02-01T04:52:55.859Z,3.70
2023-02-01T04:55:23.037Z,3.70
2023-02-01T04:57:49.642Z,3.80
2023-02-01T05:00:16.555Z,3.80
2023-02-01T05:02:43.300Z,3.90
2023-02-01T05:05:10.009Z,3.80
2023-02-01T05:07:36.657Z,3.90
2023-02-01T05:10:03.361Z,3.90
2023-02-01T05:12:48.780Z,3.80
2023-02-01T05:15:15.519Z,3.90
2023-02-01T05:17:42.201Z,4.00
2023-02-01T05:20:09.807Z,4.00
2023-02-01T05:22:36.438Z,4.00
2023-02-01T05:25:03.091Z,4.00
2023-02-01T05:27:30.711Z,4.00
2023-02-01T05:29:57.363Z,4.00
2023-02-01T05:32:24.043Z,3.90
2023-02-01T05:34:50.861Z,3.90
2023-02-01T05:37:19.559Z,3.90
2023-02-01T05:39:46.264Z,4.00
2023-02-01T05:42:12.960Z,4.00
2023-02-01T05:44:39.593Z,4.00
2023-02-01T05:47:06.293Z,4.00
2023-02-01T05:49:32.889Z,4.00
2023-02-01T05:52:00.601Z,4.00
2023-02-01T05:54:27.565Z,4.00
2023-02-01T05:56:54.221Z,4.00
2023-02-01T05:59:20.954Z,4.10
2023-02-01T06:01:47.608Z,4.00
2023-02-01T06:04:14.282Z,4.00
2023-02-01T06:06:40.907Z,4.10
2023-02-01T06:09:07.586Z,4.10
2023-02-01T06:11:34.185Z,4.10
2023-02-01T06:14:00.889Z,4.00
2023-02-01T06:16:27.851Z,4.10
2023-02-01T06:18:54.953Z,4.00
2023-02-01T06:21:25.015Z,4.00
2023-02-01T06:23:52.437Z,4.10
2023-02-01T06:26:19.212Z,4.30
2023-02-01T06:28:45.935Z,4.30
2023-02-01T06:31:12.948Z,4.30
2023-02-01T06:33:39.860Z,4.30
2023-02-01T06:36:07.595Z,4.40
2023-02-01T06:38:37.254Z,4.50
2023-02-01T06:41:04.528Z,4.50
2023-02-01T06:43:31.763Z,4.90
2023-02-01T06:46:06.324Z,5.00
2023-02-01T06:48:33.525Z,4.90
2023-02-01T06:51:00.232Z,4.90
2023-02-01T06:53:27.155Z,5.00
2023-02-01T06:55:58.599Z,5.00
2023-02-01T06:58:25.564Z,5.00
2023-02-01T07:00:54.807Z,5.00
2023-02-01T07:03:21.450Z,4.90
2023-02-01T07:05:48.039Z,5.00
2023-02-01T07:08:14.728Z,5.10
2023-02-01T07:10:41.479Z,5.20
2023-02-01T07:13:08.161Z,5.10
2023-02-01T07:15:35.064Z,5.00
2023-02-01T07:18:01.751Z,4.90
2023-02-01T07:20:28.450Z,4.90
2023-02-01T07:22:58.285Z,4.80
2023-02-01T07:25:25.157Z,4.90
2023-02-01T07:27:52.899Z,5.00
2023-02-01T07:30:19.643Z,5.30
2023-02-01T07:32:46.287Z,5.20
2023-02-01T07:35:13.045Z,5.40
2023-02-01T07:37:39.628Z,5.50
2023-02-01T07:40:06.792Z,5.50
2023-02-01T07:42:33.387Z,5.50
2023-02-01T07:45:14.747Z,5.40
2023-02-01T07:47:45.574Z,5.30
2023-02-01T07:50:12.243Z,5.80
2023-02-01T07:52:38.905Z,5.60
2023-02-01T07:55:05.835Z,5.50
2023-02-01T07:57:32.602Z,5.50
2023-02-01T08:00:18.158Z,5.60
2023-02-01T08:02:44.800Z,5.70
2023-02-01T08:05:11.427Z,5.70
2023-02-01T08:07:38.074Z,5.80
2023-02-01T08:10:06.596Z,5.90
2023-02-01T08:12:33.670Z,5.80
2023-02-01T08:15:00.305Z,5.70
2023-02-01T08:17:28.754Z,5.80
2023-02-01T08:19:55.411Z,5.90
2023-02-01T08:22:22.074Z,5.90
2023-02-01T08:24:49.236Z,5.90
2023-02-01T08:27:15.879Z,5.80
2023-02-01T08:29:42.513Z,5.80
2023-02-01T08:32:09.164Z,5.90
2023-02-01T08:34:36.012Z,5.90
2023-02-01T08:37:02.933Z,6.10
2023-02-01T08:39:29.598Z,6.20
2023-02-01T08:42:25.545Z,6.20
2023-02-01T08:44:52.993Z,6.00
2023-02-01T08:47:19.691Z,6.40
2023-02-01T08:49:46.524Z,6.30
2023-02-01T08:52:15.954Z,6.30
2023-02-01T08:54:43.117Z,6.30
2023-02-01T08:57:10.919Z,6.40
2023-02-01T08:59:37.500Z,6.50
2023-02-01T09:02:04.199Z,6.40
2023-02-01T09:04:30.790Z,6.40
2023-02-01T09:06:57.442Z,6.40
2023-02-01T09:09:24.459Z,6.50
2023-02-01T09:11:51.385Z,6.60
2023-02-01T09:14:18.215Z,6.50
2023-02-01T09:16:45.040Z,6.50
2023-02-01T09:19:26.038Z,6.70
2023-02-01T09:21:53.214Z,6.70
2023-02-01T09:24:19.935Z,6.70
2023-02-01T09:26:46.630Z,6.70
2023-02-01T09:29:13.376Z,6.70
2023-02-01T09:31:44.232Z,6.80
2023-02-01T09:34:16.492Z,6.80
2023-02-01T09:36:43.142Z,6.80
2023-02-01T09:39:09.864Z,6.80
2023-02-01T09:41:38.752Z,6.80
2023-02-01T09:44:13.167Z,6.70
2023-02-01T09:46:39.874Z,6.90
2023-02-01T09:49:43.592Z,6.80
2023-02-01T09:52:13.899Z,6.90
2023-02-01T09:54:48.501Z,6.80
2023-02-01T09:57:23.400Z,6.90
2023-02-01T09:59:53.969Z,6.90
2023-02-01T10:02:27.317Z,7.00
2023-02-01T10:04:56.053Z,7.20
2023-02-01T10:07:48.297Z,7.20
2023-02-01T10:10:38.207Z,7.30
2023-02-01T10:13:23.182Z,7.20
2023-02-01T10:16:08.725Z,7.40
2023-02-01T10:18:46.460Z,7.20
2023-02-01T10:21:42.724Z,7.20
2023-02-01T10:24:30.179Z,7.20
2023-02-01T10:27:00.764Z,7.20
2023-02-01T10:29:34.108Z,7.40
2023-02-01T10:32:01.249Z,7.40
2023-02-01T10:34:30.855Z,7.20
2023-02-01T10:36:57.465Z,7.20
2023-02-01T10:39:27.783Z,7.20
2023-02-01T10:41:55.699Z,7.30
2023-02-01T10:44:27.124Z,7.40
2023-02-01T10:46:53.793Z,7.40
2023-02-01T10:49:52.914Z,7.50
2023-02-01T10:52:25.350Z,7.60
2023-02-01T10:54:51.969Z,7.60
2023-02-01T10:57:25.561Z,7.50
2023-02-01T10:59:53.145Z,7.40
2023-02-01T11:02:33.653Z,7.30
2023-02-01T11:05:05.699Z,7.30
2023-02-01T11:07:32.741Z,7.40
2023-02-01T11:09:59.567Z,7.30
2023-02-01T11:12:28.955Z,7.30
2023-02-01T11:15:18.891Z,7.30
2023-02-01T11:17:46.602Z,7.20
2023-02-01T11:20:21.226Z,7.50
2023-02-01T11:22:55.723Z,7.50
2023-02-01T11:25:23.447Z,7.60
2023-02-01T11:27:55.285Z,7.70
2023-02-01T11:30:34.593Z,7.60
2023-02-01T11:33:01.789Z,7.60
2023-02-01T11:35:29.339Z,7.60
2023-02-01T11:37:59.999Z,7.70
2023-02-01T11:40:34.965Z,7.70
2023-02-01T11:43:08.445Z,7.60
2023-02-01T11:45:41.136Z,7.50
2023-02-01T11:48:21.541Z,7.50
2023-02-01T11:51:11.534Z,7.60
2023-02-01T11:53:58.975Z,7.70
2023-02-01T11:56:32.947Z,7.70
2023-02-01T11:59:05.871Z,7.50
2023-02-01T12:01:39.050Z,7.60
2023-02-01T12:04:24.351Z,7.60
2023-02-01T12:06:52.936Z,7.60
2023-02-01T12:09:35.674Z,7.50
2023-02-01T12:12:21.611Z,7.50
2023-02-01T12:15:04.649Z,7.50
2023-02-01T12:17:33.697Z,7.60
2023-02-01T12:20:00.288Z,7.60
2023-02-01T12:22:34.163Z,7.70
2023-02-01T12:25:01.680Z,7.70
2023-02-01T12:27:28.293Z,7.70
2023-02-01T12:30:00.709Z,7.80
2023-02-01T12:32:30.396Z,7.80
2023-02-01T12:35:14.731Z,7.70
2023-02-01T12:37:55.597Z,7.70
2023-02-01T12:40:30.230Z,7.80
2023-02-01T12:43:05.602Z,7.80
2023-02-01T12:45:46.951Z,7.70
2023-02-01T12:48:13.796Z,7.60
2023-02-01T12:50:44.342Z,7.50
2023-02-01T12:53:25.073Z,7.60
2023-02-01T12:55:56.132Z,7.60
2023-02-01T12:58:33.668Z,7.50
2023-02-01T13:01:04.843Z,7.30
2023-02-01T13:03:31.437Z,7.40
2023-02-01T13:06:16.898Z,7.40
2023-02-01T13:08:46.212Z,7.30
2023-02-01T13:11:16.329Z,7.50
2023-02-01T13:13:46.034Z,7.30
2023-02-01T13:16:27.942Z,7.20
2023-02-01T13:18:56.043Z,7.30
2023-02-01T13:21:25.599Z,7.20
2023-02-01T13:23:52.704Z,7.40
2023-02-01T13:26:19.447Z,7.40
2023-02-01T13:28:48.882Z,7.40
2023-02-01T13:31:28.639Z,7.30
2023-02-01T13:33:56.672Z,7.20
2023-02-01T13:36:43.122Z,7.10
2023-02-01T13:39:48.678Z,7.30
2023-02-01T13:42:34.024Z,7.20
2023-02-01T13:45:02.079Z,7.30
2023-02-01T13:47:28.696Z,7.30
2023-02-01T13:49:56.656Z,7.30
2023-02-01T13:52:39.274Z,7.30
2023-02-01T13:55:21.491Z,7.30
2023-02-01T13:57:49.832Z,7.30
2023-02-01T14:00:35.948Z,7.20
2023-02-01T14:03:03.672Z,7.30
2023-02-01T14:05:30.272Z,7.40
2023-02-01T14:08:10.645Z,7.20
2023-02-01T14:10:50.406Z,7.20
2023-02-01T14:13:23.223Z,7.20
2023-02-01T14:16:10.241Z,7.10
2023-02-01T14:18:43.350Z,7.00
2023-02-01T14:21:23.038Z,6.90
2023-02-01T14:23:56.443Z,6.90
2023-02-01T14:26:28.094Z,7.00
2023-02-01T14:29:00.812Z,7.00
2023-02-01T14:31:33.590Z,6.90
2023-02-01T14:34:02.592Z,6.90
2023-02-01T14:36:41.211Z,6.90
2023-02-01T14:39:19.913Z,7.00
2023-02-01T14:41:47.775Z,6.90
2023-02-01T14:44:15.594Z,6.80
2023-02-01T14:47:01.717Z,6.80
2023-02-01T14:49:31.851Z,6.90
2023-02-01T14:51:58.828Z,7.00
2023-02-01T14:54:33.661Z,6.80
2023-02-01T14:57:00.782Z,6.70
2023-02-01T14:59:34.066Z,6.80
2023-02-01T15:02:01.724Z,6.80
2023-02-01T15:04:28.927Z,6.60
2023-02-01T15:06:59.914Z,6.60
2023-02-01T15:09:31.313Z,6.70
2023-02-01T15:12:13.319Z,6.70
2023-02-01T15:14:46.331Z,6.60
2023-02-01T15:17:21.365Z,6.50
2023-02-01T15:19:58.211Z,6.80
2023-02-01T15:22:25.011Z,6.80
2023-02-01T15:24:55.529Z,7.00
2023-02-01T15:27:22.183Z,6.90
2023-02-01T15:29:48.937Z,6.80
2023-02-01T15:32:32.495Z,6.70
2023-02-01T15:34:59.976Z,6.90
2023-02-01T15:37:27.325Z,6.80
2023-02-01T15:40:12.738Z,6.90
2023-02-01T15:42:51.361Z,6.90
2023-02-01T15:45:22.616Z,6.90
2023-02-01T15:47:50.821Z,6.90
2023-02-01T15:50:22.164Z,6.80
2023-02-01T15:52:51.405Z,6.90
2023-02-01T15:55:45.861Z,6.80
2023-02-01T15:58:20.275Z,6.90
2023-02-01T16:00:51.445Z,6.80
2023-02-01T16:03:24.486Z,6.80
2023-02-01T16:05:56.921Z,6.70
2023-02-01T16:08:24.712Z,6.90
2023-02-01T16:10:53.083Z,6.80
2023-02-01T16:13:21.174Z,6.70
2023-02-01T16:15:51.003Z,6.70
2023-02-01T16:18:19.023Z,6.70
2023-02-01T16:20:46.399Z,6.40
2023-02-01T16:23:13.548Z,6.40
2023-02-01T16:25:40.203Z,6.30
2023-02-01T16:28:07.220Z,6.20
2023-02-01T16:30:34.304Z,6.10
2023-02-01T16:33:03.594Z,6.00
2023-02-01T16:35:37.915Z,5.90
2023-02-01T16:38:09.675Z,6.10
2023-02-01T16:40:36.512Z,6.20
2023-02-01T16:43:04.431Z,6.10
2023-02-01T16:45:31.220Z,6.00
2023-02-01T16:47:58.128Z,5.70
2023-02-01T16:50:25.795Z,5.70
2023-02-01T16:52:53.993Z,5.60
2023-02-01T16:55:25.336Z,5.70
2023-02-01T16:57:52.157Z,5.70
2023-02-01T17:00:25.329Z,5.70
2023-02-01T17:02:53.044Z,5.80
2023-02-01T17:05:19.812Z,5.90
2023-02-01T17:07:46.610Z,5.80
2023-02-01T17:10:34.647Z,5.80
2023-02-01T17:13:02.064Z,5.80
2023-02-01T17:15:30.336Z,5.80
2023-02-01T17:17:58.733Z,5.70
2023-02-01T17:20:27.670Z,5.80
2023-02-01T17:22:54.646Z,5.80
2023-02-01T17:25:26.475Z,5.70
2023-02-01T17:27:53.220Z,6.00
2023-02-01T17:30:19.974Z,5.80
2023-02-01T17:32:46.761Z,5.70
2023-02-01T17:35:21.123Z,5.90
2023-02-01T17:37:48.436Z,5.80
2023-02-01T17:40:15.534Z,6.00
2023-02-01T17:42:42.218Z,5.90
2023-02-01T17:45:19.632Z,5.80
2023-02-01T17:47:47.742Z,5.70
2023-02-01T17:50:14.498Z,5.70
2023-02-01T17:52:41.147Z,5.80
2023-02-01T17:55:22.689Z,6.10
2023-02-01T17:57:49.786Z,6.00
2023-02-01T18:00:17.340Z,6.10
2023-02-01T18:02:44.352Z,6.10
2023-02-01T18:05:34.475Z,6.00
2023-02-01T18:08:01.052Z,5.90
2023-02-01T18:10:27.697Z,6.00
2023-02-01T18:12:55.100Z,5.90
2023-02-01T18:15:23.508Z,6.10
2023-02-01T18:17:50.442Z,6.00
2023-02-01T18:20:18.335Z,6.10
2023-02-01T18:22:48.414Z,6.00
2023-02-01T18:25:20.720Z,6.10
2023-02-01T18:27:48.499Z,6.00
2023-02-01T18:30:15.793Z,6.00
2023-02-01T18:32:43.459Z,6.00
2023-02-01T18:35:18.029Z,6.10
2023-02-01T18:37:44.719Z,6.10
2023-02-01T18:40:15.816Z,5.90
2023-02-01T18:42:43.269Z,5.80
2023-02-01T18:45:20.126Z,5.90
2023-02-01T18:47:46.780Z,6.20
2023-02-01T18:50:13.458Z,6.10
2023-02-01T18:52:40.064Z,6.10
2023-02-01T18:55:08.123Z,6.10
2023-02-01T18:57:34.734Z,6.20
2023-02-01T19:00:01.758Z,6.20
2023-02-01T19:02:28.606Z,6.00
2023-02-01T19:04:55.254Z,6.00
2023-02-01T19:07:21.922Z,6.10
2023-02-01T19:09:48.695Z,6.20
2023-02-01T19:12:15.544Z,6.00
2023-02-01T19:14:43.810Z,6.10
2023-02-01T19:17:10.464Z,6.30
2023-02-01T19:19:37.152Z,6.30
2023-02-01T19:22:06.744Z,6.20
2023-02-01T19:24:33.417Z,6.20
2023-02-01T19:27:00.132Z,6.30
2023-02-01T19:29:26.978Z,6.40
2023-02-01T19:31:53.694Z,6.30
2023-02-01T19:34:20.397Z,6.20
2023-02-01T19:36:47.839Z,6.30
2023-02-01T19:39:14.463Z,6.40
2023-02-01T19:41:41.266Z,6.40
2023-02-01T19:44:08.090Z,6.20
2023-02-01T19:46:40.681Z,6.40
2023-02-01T19:49:12.233Z,6.60
2023-02-01T19:51:44.657Z,6.40
2023-02-01T19:54:12.009Z,6.40
2023-02-01T19:56:38.776Z,6.60
2023-02-01T19:59:05.470Z,6.60
2023-02-01T20:01:32.010Z,6.40
2023-02-01T20:04:01.836Z,6.50
2023-02-01T20:06:29.575Z,6.40
2023-02-01T20:08:56.709Z,6.40
2023-02-01T20:11:29.913Z,6.40
2023-02-01T20:13:58.057Z,6.40
2023-02-01T20:16:24.774Z,6.50
2023-02-01T20:18:51.516Z,6.40
2023-02-01T20:21:24.332Z,6.30
2023-02-01T20:23:51.033Z,6.40
2023-02-01T20:26:23.761Z,6.50
2023-02-01T20:28:50.702Z,6.50
2023-02-01T20:31:17.734Z,6.50
2023-02-01T20:33:44.462Z,6.40
2023-02-01T20:36:11.230Z,6.60
2023-02-01T20:38:38.063Z,6.40
2023-02-01T20:41:05.878Z,6.30
2023-02-01T20:43:34.435Z,6.30
2023-02-01T20:46:01.271Z,6.50
2023-02-01T20:48:29.247Z,6.50
2023-02-01T20:50:56.674Z,6.40
2023-02-01T20:53:31.778Z,6.30
2023-02-01T20:56:04.539Z,6.50
2023-02-01T20:58:54.878Z,6.30
2023-02-01T21:01:33.571Z,6.30
2023-02-01T21:04:02.617Z,6.40
2023-02-01T21:06:29.293Z,6.40
2023-02-01T21:08:56.040Z,6.30
2023-02-01T21:11:22.780Z,6.30
2023-02-01T21:13:53.543Z,6.40
2023-02-01T21:16:29.600Z,6.20
2023-02-01T21:19:00.712Z,6.40
2023-02-01T21:21:27.386Z,6.40
2023-02-01T21:24:00.999Z,6.50
2023-02-01T21:26:42.947Z,6.50
2023-02-01T21:29:11.415Z,6.60
2023-02-01T21:31:38.772Z,6.40
2023-02-01T21:34:06.789Z,6.40
2023-02-01T21:36:36.692Z,6.30
2023-02-01T21:39:04.718Z,6.30
2023-02-01T21:41:50.795Z,6.40
2023-02-01T21:44:18.578Z,6.30
2023-02-01T21:46:45.247Z,6.10
2023-02-01T21:49:12.311Z,6.10
2023-02-01T21:51:39.065Z,6.20
2023-02-01T21:54:09.995Z,6.20
2023-02-01T21:56:39.592Z,6.10
2023-02-01T21:59:06.625Z,6.30
2023-02-01T22:04:22.789Z,5.90
2023-02-01T22:06:49.601Z,5.80
2023-02-01T22:09:35.060Z,5.90
2023-02-01T22:12:39.522Z,5.70
2023-02-01T22:15:04.547Z,5.40
2023-02-01T22:17:59.547Z,5.40
2023-02-01T22:21:08.848Z,5.20
2023-02-01T22:23:35.943Z,5.10
2023-02-01T22:26:04.079Z,5.00
2023-02-01T22:28:43.547Z,5.00
2023-02-01T22:31:10.770Z,4.90
2023-02-01T22:33:40.342Z,4.90
2023-02-01T22:36:08.323Z,4.90
2023-02-01T22:38:46.920Z,4.80
2023-02-01T22:41:24.611Z,5.10
2023-02-01T22:43:57.887Z,4.90
2023-02-01T22:46:30.013Z,4.70
2023-02-01T22:49:10.281Z,4.50
2023-02-01T22:51:37.130Z,4.60
2023-02-01T22:54:18.656Z,4.60
2023-02-01T22:57:00.920Z,4.50
2023-02-01T22:59:48.603Z,4.50
2023-02-01T23:02:44.299Z,4.50
2023-02-01T23:05:11.393Z,4.50
2023-02-01T23:07:38.192Z,4.50
2023-02-01T23:10:08.229Z,4.50
2023-02-01T23:12:51.232Z,4.50
2023-02-01T23:15:44.522Z,4.50
2023-02-01T23:18:18.725Z,4.50
2023-02-01T23:20:52.897Z,4.50
2023-02-01T23:23:22.571Z,4.50
2023-02-01T23:25:51.909Z,4.50
2023-02-01T23:28:18.622Z,4.40
2023-02-01T23:30:47.660Z,4.30
2023-02-01T23:33:16.853Z,4.50
2023-02-01T23:35:43.446Z,4.40
2023-02-01T23:38:10.089Z,4.30
2023-02-01T23:40:36.782Z,4.20
2023-02-01T23:43:22.056Z,4.20
2023-02-01T23:45:48.647Z,4.20
2023-02-01T23:48:15.261Z,4.30
2023-02-01T23:50:44.953Z,4.20
2023-02-01T23:53:11.520Z,4.30
2023-02-01T23:55:38.087Z,4.30
2023-02-01T23:58:04.700Z,4.20
